Terminal Aerodrome Forecast
Issued by NWS

Home | Current Version | Previous Version | Text Only | Print | Product List | Glossary On
Versions: 1 2 3 4 5 6 7 8 9 10 11 12 13 14 15 16 17 18 19 20 21 22 23 24 25 26 27 28 29 30 31 32 33 34 35 36
000
FTUS45 KSLC 050139 AAA
TAFEVW
TAF AMD
KEVW 050139Z 0502/0524 12009KT P6SM VCTS SCT070CB BKN100
     FM050230 16006KT P6SM VCSH SCT070 BKN120
     FM051100 24009KT P6SM VCSH SCT060 BKN100=

USA.gov is the U.S. government's official web portal to all federal, state and local government web resources and services.